Time;durP1;ratioP1;P1;durP2;ratioP2;P2;SDS_P1;SDS_P2;PMS_P1;PMS_P2;Temp;Humidity;BMP_temperature;BMP_pressure;BME280_temperature;BME280_humidity;BME280_pressure;Samples;Min_cycle;Max_cycle;Signal;HPM_P1;HPM_P2
2024/01/24 00:01:58;;;;;;;1.73;1.33;;;9.00;99.90;;;;;;5087651;28;20210;-74
2024/01/24 00:04:24;;;;;;;1.73;1.27;;;9.00;99.90;;;;;;5104475;28;20610;-74
2024/01/24 00:06:50;;;;;;;3.30;1.10;;;9.00;99.90;;;;;;5080821;28;20219;-75
2024/01/24 00:09:16;;;;;;;3.43;1.20;;;9.00;99.90;;;;;;5099744;28;20454;-74
2024/01/24 00:11:41;;;;;;;5.13;1.10;;;9.00;99.90;;;;;;5100088;28;20257;-74
2024/01/24 00:14:08;;;;;;;1.03;0.90;;;9.00;99.90;;;;;;5081461;28;20235;-74
2024/01/24 00:16:34;;;;;;;3.53;1.30;;;9.00;99.90;;;;;;5075591;28;20293;-75
2024/01/24 00:19:00;;;;;;;1.60;1.17;;;9.10;99.90;;;;;;5102516;28;20552;-75
2024/01/24 00:21:25;;;;;;;4.50;1.40;;;9.10;99.90;;;;;;5102496;28;20223;-75
2024/01/24 00:23:51;;;;;;;2.47;1.37;;;9.10;99.90;;;;;;5090673;28;20240;-75
2024/01/24 00:26:17;;;;;;;1.30;0.90;;;9.10;99.90;;;;;;5077024;28;20242;-74
2024/01/24 00:28:43;;;;;;;1.53;1.13;;;9.20;99.90;;;;;;5081027;28;20207;-75
2024/01/24 00:31:09;;;;;;;1.50;1.00;;;9.20;99.90;;;;;;5097391;28;20211;-74
2024/01/24 00:33:35;;;;;;;1.30;1.20;;;9.20;99.90;;;;;;5085955;28;20472;-75
2024/01/24 00:36:00;;;;;;;4.93;1.47;;;9.20;99.90;;;;;;5103357;28;20226;-74
2024/01/24 00:38:26;;;;;;;1.03;0.93;;;9.20;99.90;;;;;;5103247;28;20771;-75
2024/01/24 00:40:52;;;;;;;1.43;1.33;;;9.20;99.90;;;;;;5080158;28;20254;-74
2024/01/24 00:43:17;;;;;;;1.60;1.20;;;9.20;99.90;;;;;;5080206;28;20243;-75
2024/01/24 00:45:43;;;;;;;2.57;1.47;;;9.20;99.90;;;;;;5065045;28;20210;-74
2024/01/24 00:48:09;;;;;;;1.17;1.10;;;9.20;99.90;;;;;;5106453;27;20678;-74
2024/01/24 00:50:34;;;;;;;1.83;1.20;;;9.20;99.90;;;;;;5083601;28;20276;-75
2024/01/24 00:53:06;;;;;;;1.80;1.10;;;9.30;99.90;;;;;;5105794;27;20217;-74
2024/01/24 00:55:32;;;;;;;3.17;1.53;;;9.20;99.90;;;;;;5098585;28;20671;-75
2024/01/24 00:57:58;;;;;;;1.33;1.23;;;9.30;99.90;;;;;;5070493;28;20449;-74
2024/01/24 01:00:24;;;;;;;1.90;1.10;;;9.30;99.90;;;;;;5075248;28;20248;-74
2024/01/24 01:02:50;;;;;;;1.50;1.00;;;9.30;99.90;;;;;;5083608;28;20461;-75
2024/01/24 01:05:16;;;;;;;1.33;0.87;;;9.30;99.90;;;;;;5097852;28;20452;-74
2024/01/24 01:07:41;;;;;;;1.97;1.10;;;9.30;99.90;;;;;;5081440;28;20351;-75
2024/01/24 01:10:08;;;;;;;1.27;1.17;;;9.30;99.90;;;;;;5101642;28;20625;-75
2024/01/24 01:12:34;;;;;;;1.50;0.93;;;9.30;99.90;;;;;;5081790;28;20213;-74
2024/01/24 01:15:00;;;;;;;1.33;1.23;;;9.30;99.90;;;;;;5100505;28;20461;-74
2024/01/24 01:17:25;;;;;;;1.03;0.90;;;9.30;99.90;;;;;;5083445;28;20213;-74
2024/01/24 01:19:51;;;;;;;1.23;1.00;;;9.30;99.90;;;;;;5074065;28;20234;-75
2024/01/24 01:22:17;;;;;;;1.00;0.90;;;9.30;99.90;;;;;;5102855;28;20217;-73
2024/01/24 01:24:42;;;;;;;1.47;1.13;;;9.40;99.90;;;;;;5103462;28;20278;-74
2024/01/24 01:27:08;;;;;;;1.00;0.80;;;9.30;99.90;;;;;;5110823;27;20222;-73
2024/01/24 01:29:34;;;;;;;1.33;1.00;;;9.30;99.90;;;;;;5088980;28;20221;-74
2024/01/24 01:32:00;;;;;;;0.80;0.80;;;9.30;99.90;;;;;;5075646;28;20812;-75
2024/01/24 01:34:26;;;;;;;0.90;0.70;;;9.30;99.90;;;;;;5075751;28;20241;-75
2024/01/24 01:36:52;;;;;;;0.77;0.60;;;9.30;99.90;;;;;;5071785;28;20460;-74
2024/01/24 01:39:18;;;;;;;1.20;0.93;;;9.30;99.90;;;;;;5107167;27;20223;-74
2024/01/24 01:41:48;;;;;;;0.90;0.60;;;9.40;99.90;;;;;;5107340;28;20199;-74
2024/01/24 01:44:15;;;;;;;1.07;0.70;;;9.40;99.90;;;;;;5084715;28;20449;-74
2024/01/24 01:46:41;;;;;;;0.80;0.80;;;9.40;99.90;;;;;;5101229;28;20456;-75
2024/01/24 01:49:07;;;;;;;1.00;1.00;;;9.40;99.90;;;;;;5101854;28;20445;-74
2024/01/24 01:51:33;;;;;;;1.07;1.00;;;9.40;99.90;;;;;;5089362;28;20981;-75
2024/01/24 01:54:00;;;;;;;0.63;0.63;;;9.40;99.90;;;;;;5093517;28;20460;-74
2024/01/24 01:56:26;;;;;;;0.83;0.83;;;9.40;99.90;;;;;;5107911;28;20478;-74
2024/01/24 01:58:52;;;;;;;1.40;0.80;;;9.40;99.90;;;;;;5086913;28;20469;-74
2024/01/24 02:01:19;;;;;;;0.80;0.60;;;9.50;99.90;;;;;;5087818;28;20448;-73
2024/01/24 02:03:48;;;;;;;3.03;0.90;;;9.50;99.90;;;;;;5088112;28;20469;-75
2024/01/24 02:06:13;;;;;;;1.73;0.90;;;9.50;99.90;;;;;;5058967;28;20472;-74
2024/01/24 02:08:39;;;;;;;1.03;0.70;;;9.50;99.90;;;;;;5104912;27;20621;-75
2024/01/24 02:11:05;;;;;;;1.10;0.83;;;9.50;99.90;;;;;;5089016;28;20717;-75
2024/01/24 02:13:32;;;;;;;0.83;0.77;;;9.50;99.90;;;;;;5089942;28;20505;-75
2024/01/24 02:16:04;;;;;;;0.73;0.63;;;9.50;99.90;;;;;;5108587;28;20858;-74
2024/01/24 02:18:30;;;;;;;0.70;0.70;;;9.50;99.90;;;;;;5099973;28;20505;-74
2024/01/24 02:20:56;;;;;;;1.43;0.73;;;9.50;99.90;;;;;;5082971;28;20981;-75
2024/01/24 02:23:24;;;;;;;0.50;0.50;;;9.50;99.90;;;;;;5090104;28;20244;-74
2024/01/24 02:25:50;;;;;;;0.80;0.80;;;9.60;99.90;;;;;;5088623;28;20450;-75
2024/01/24 02:28:16;;;;;;;0.83;0.83;;;9.50;99.90;;;;;;5086513;28;20463;-74
2024/01/24 02:30:42;;;;;;;0.80;0.70;;;9.60;99.90;;;;;;5109646;27;20467;-75
2024/01/24 02:33:08;;;;;;;0.80;0.80;;;9.50;99.90;;;;;;5104880;28;20448;-75
2024/01/24 02:35:34;;;;;;;0.63;0.63;;;9.60;99.90;;;;;;5072966;28;20218;-75
2024/01/24 02:38:00;;;;;;;0.90;0.90;;;9.60;99.90;;;;;;5082579;28;20296;-75
2024/01/24 02:40:26;;;;;;;2.60;0.93;;;9.60;99.90;;;;;;5079197;28;20574;-74
2024/01/24 02:42:51;;;;;;;0.67;0.67;;;9.60;99.90;;;;;;5064213;28;20523;-75
2024/01/24 02:45:17;;;;;;;1.37;0.73;;;9.60;99.90;;;;;;5082620;28;20226;-74
2024/01/24 02:47:43;;;;;;;0.80;0.80;;;9.70;99.90;;;;;;5096734;28;20336;-75
2024/01/24 02:50:10;;;;;;;1.13;0.53;;;9.60;99.90;;;;;;5099025;28;20237;-75
2024/01/24 02:52:36;;;;;;;0.80;0.63;;;9.60;99.90;;;;;;5062592;28;20237;-75
2024/01/24 02:55:02;;;;;;;0.60;0.60;;;9.70;99.90;;;;;;5084942;28;21056;-75
2024/01/24 02:57:28;;;;;;;0.67;0.67;;;9.70;99.90;;;;;;5068726;28;20309;-75
2024/01/24 02:59:53;;;;;;;1.37;0.90;;;9.70;99.90;;;;;;5081568;28;20555;-75
2024/01/24 03:02:19;;;;;;;2.07;1.13;;;9.70;99.90;;;;;;5101799;28;20297;-75
2024/01/24 03:04:44;;;;;;;4.63;0.80;;;9.70;99.90;;;;;;5099111;28;20214;-75
2024/01/24 03:07:10;;;;;;;2.17;0.90;;;9.70;99.90;;;;;;5067946;28;20700;-74
2024/01/24 03:09:36;;;;;;;0.80;0.57;;;9.70;99.90;;;;;;5086209;28;20234;-75
2024/01/24 03:12:02;;;;;;;0.70;0.57;;;9.70;99.90;;;;;;5106337;28;20957;-75
2024/01/24 03:14:27;;;;;;;1.00;0.70;;;9.70;99.90;;;;;;5089319;28;20215;-75
2024/01/24 03:16:53;;;;;;;0.50;0.50;;;9.70;99.90;;;;;;5083148;28;20211;-75
2024/01/24 03:19:19;;;;;;;0.50;0.50;;;9.70;99.90;;;;;;5095379;28;20227;-75
2024/01/24 03:21:45;;;;;;;0.73;0.73;;;9.70;99.90;;;;;;5107833;28;20267;-75
2024/01/24 03:24:11;;;;;;;0.50;0.50;;;9.70;99.90;;;;;;5105618;28;20271;-75
2024/01/24 03:26:37;;;;;;;0.50;0.50;;;9.70;99.90;;;;;;5089607;28;20464;-75
2024/01/24 03:29:02;;;;;;;0.40;0.40;;;9.70;99.90;;;;;;5094794;28;20226;-75
2024/01/24 03:31:28;;;;;;;0.70;0.70;;;9.80;99.90;;;;;;5103202;28;20214;-74
2024/01/24 03:33:54;;;;;;;0.60;0.50;;;9.80;99.90;;;;;;5090486;28;20215;-75
2024/01/24 03:36:19;;;;;;;1.20;0.70;;;9.80;99.90;;;;;;5100833;28;20214;-75
2024/01/24 03:38:45;;;;;;;0.87;0.60;;;9.80;99.90;;;;;;5074887;28;20661;-75
2024/01/24 03:41:10;;;;;;;0.60;0.60;;;9.80;99.90;;;;;;5068778;28;20731;-75
2024/01/24 03:43:39;;;;;;;1.70;0.60;;;9.80;99.90;;;;;;5098240;28;20218;-75
2024/01/24 03:46:05;;;;;;;1.20;0.70;;;9.80;99.90;;;;;;5097959;28;20214;-75
2024/01/24 03:48:31;;;;;;;0.40;0.40;;;9.80;99.90;;;;;;5078228;28;20449;-75
2024/01/24 03:50:57;;;;;;;0.60;0.47;;;9.80;99.90;;;;;;5065753;28;20448;-75
2024/01/24 03:53:23;;;;;;;0.60;0.50;;;9.80;99.90;;;;;;5076604;28;20699;-74
2024/01/24 03:55:48;;;;;;;0.50;0.47;;;9.90;99.90;;;;;;5098994;28;20691;-75
2024/01/24 03:58:14;;;;;;;0.60;0.60;;;9.90;99.90;;;;;;5094877;28;20297;-75
2024/01/24 04:00:40;;;;;;;0.50;0.40;;;9.90;99.90;;;;;;5092498;28;20237;-75
2024/01/24 04:03:06;;;;;;;1.83;0.70;;;9.90;99.90;;;;;;5093450;28;20214;-75
2024/01/24 04:05:32;;;;;;;0.97;0.60;;;10.00;99.90;;;;;;5083151;28;20221;-75
2024/01/24 04:07:57;;;;;;;0.60;0.60;;;10.00;99.90;;;;;;5071016;28;20250;-75
2024/01/24 04:10:23;;;;;;;1.70;0.50;;;10.00;99.90;;;;;;5095789;28;20460;-75
2024/01/24 04:12:49;;;;;;;1.53;0.70;;;10.00;99.90;;;;;;5094653;28;20619;-75
2024/01/24 04:15:14;;;;;;;0.60;0.60;;;10.00;99.90;;;;;;5073593;28;20226;-75
2024/01/24 04:17:40;;;;;;;0.70;0.60;;;10.10;99.90;;;;;;5070056;28;20214;-75
2024/01/24 04:20:07;;;;;;;0.70;0.70;;;10.10;99.90;;;;;;5097649;28;20227;-75
2024/01/24 04:22:33;;;;;;;0.50;0.50;;;10.10;99.90;;;;;;5096347;28;20207;-75
2024/01/24 04:25:00;;;;;;;0.90;0.57;;;10.10;99.90;;;;;;5080155;28;20515;-75
2024/01/24 04:27:26;;;;;;;1.67;0.70;;;10.20;99.90;;;;;;5080175;28;20218;-75
2024/01/24 04:29:52;;;;;;;0.60;0.40;;;10.30;99.90;;;;;;5090753;28;20460;-75
2024/01/24 04:32:18;;;;;;;0.80;0.60;;;10.30;99.90;;;;;;5095805;28;20226;-75
2024/01/24 04:34:44;;;;;;;0.93;0.87;;;10.30;99.90;;;;;;5080314;28;20226;-75
2024/01/24 04:37:10;;;;;;;0.40;0.40;;;10.40;99.90;;;;;;5091993;28;20464;-74
2024/01/24 04:39:35;;;;;;;0.70;0.70;;;10.40;99.90;;;;;;5101952;28;20476;-75
2024/01/24 04:42:01;;;;;;;0.50;0.50;;;10.50;99.90;;;;;;5095330;28;20713;-75
2024/01/24 04:44:27;;;;;;;0.70;0.57;;;10.50;99.90;;;;;;5105672;27;20597;-75
2024/01/24 04:46:53;;;;;;;1.77;0.43;;;10.50;99.90;;;;;;5099154;28;20230;-75
2024/01/24 04:49:18;;;;;;;0.50;0.40;;;10.60;99.90;;;;;;5102367;28;20211;-75
2024/01/24 04:51:44;;;;;;;0.47;0.40;;;10.60;99.90;;;;;;5101058;28;20214;-75
2024/01/24 04:54:10;;;;;;;0.50;0.50;;;10.60;99.90;;;;;;5088432;28;20303;-74
2024/01/24 04:56:37;;;;;;;1.33;0.67;;;10.60;99.90;;;;;;5096747;28;20219;-75
2024/01/24 04:59:03;;;;;;;1.03;0.50;;;10.60;99.90;;;;;;5086665;28;20229;-75
2024/01/24 05:01:28;;;;;;;0.60;0.50;;;10.60;99.90;;;;;;5103878;28;20456;-75
2024/01/24 05:03:54;;;;;;;0.70;0.50;;;10.50;99.90;;;;;;5082632;28;20246;-74
2024/01/24 05:06:20;;;;;;;0.47;0.40;;;10.60;99.90;;;;;;5084935;27;20229;-75
2024/01/24 05:08:46;;;;;;;0.40;0.40;;;10.60;99.90;;;;;;5098132;28;20436;-75
2024/01/24 05:11:12;;;;;;;0.60;0.60;;;10.60;99.90;;;;;;5083009;28;20222;-75
2024/01/24 05:13:38;;;;;;;0.50;0.50;;;10.60;99.90;;;;;;5086068;28;20272;-75
2024/01/24 05:16:04;;;;;;;0.50;0.50;;;10.60;99.90;;;;;;5100619;27;20505;-75
2024/01/24 05:18:29;;;;;;;0.40;0.30;;;10.60;99.90;;;;;;5096867;28;20235;-74
2024/01/24 05:20:55;;;;;;;0.50;0.47;;;10.60;99.90;;;;;;5082172;28;20548;-75
2024/01/24 05:23:21;;;;;;;0.40;0.40;;;10.60;99.90;;;;;;5105069;27;20252;-74
2024/01/24 05:25:46;;;;;;;0.50;0.40;;;10.70;99.90;;;;;;5075185;28;20210;-74
2024/01/24 05:28:14;;;;;;;0.40;0.40;;;10.60;99.90;;;;;;5082341;28;20237;-73
2024/01/24 05:30:39;;;;;;;0.40;0.40;;;10.70;99.90;;;;;;5098187;28;20309;-74
2024/01/24 05:33:05;;;;;;;0.50;0.50;;;10.70;99.90;;;;;;5096578;27;20541;-73
2024/01/24 05:35:30;;;;;;;0.60;0.60;;;10.80;99.90;;;;;;5088264;28;20234;-74
2024/01/24 05:37:56;;;;;;;0.40;0.40;;;10.80;99.90;;;;;;5072115;28;20223;-74
2024/01/24 05:40:22;;;;;;;0.90;0.40;;;10.80;99.90;;;;;;5083387;28;20226;-75
2024/01/24 05:42:48;;;;;;;0.67;0.43;;;10.90;99.90;;;;;;5102140;28;20243;-74
2024/01/24 05:45:13;;;;;;;1.17;0.50;;;10.90;99.90;;;;;;5103571;28;20735;-74
2024/01/24 05:47:40;;;;;;;0.50;0.50;;;10.80;99.90;;;;;;5081355;28;20210;-75
2024/01/24 05:50:11;;;;;;;0.50;0.50;;;10.90;99.90;;;;;;5075637;28;20216;-75
2024/01/24 05:52:44;;;;;;;0.50;0.40;;;11.00;99.90;;;;;;5095096;28;20998;-75
2024/01/24 05:55:13;;;;;;;0.60;0.50;;;11.00;99.90;;;;;;5090089;27;20461;-74
2024/01/24 05:57:39;;;;;;;0.40;0.40;;;11.00;99.90;;;;;;5077477;28;20464;-75
2024/01/24 06:00:08;;;;;;;0.40;0.40;;;10.90;99.90;;;;;;5078108;28;20472;-74
2024/01/24 06:02:36;;;;;;;0.50;0.50;;;11.00;99.90;;;;;;5092029;28;20465;-75
2024/01/24 06:05:03;;;;;;;0.50;0.47;;;11.00;99.90;;;;;;5083513;28;20548;-75
2024/01/24 06:07:29;;;;;;;0.50;0.43;;;11.10;99.90;;;;;;5058333;28;20471;-75
2024/01/24 06:09:55;;;;;;;0.40;0.30;;;11.20;99.90;;;;;;5082861;28;20455;-75
2024/01/24 06:12:20;;;;;;;0.40;0.30;;;11.30;99.90;;;;;;5076729;28;20461;-75
2024/01/24 06:14:46;;;;;;;0.63;0.50;;;11.30;99.90;;;;;;5074303;28;20215;-75
2024/01/24 06:17:12;;;;;;;0.40;0.40;;;11.30;99.90;;;;;;5085130;28;20599;-74
2024/01/24 06:19:37;;;;;;;0.40;0.40;;;11.20;99.90;;;;;;5096309;28;20723;-75
2024/01/24 06:22:03;;;;;;;0.40;0.40;;;11.30;99.90;;;;;;5084152;28;20301;-75
2024/01/24 06:24:29;;;;;;;1.60;0.40;;;11.40;99.90;;;;;;5103065;27;20215;-75
2024/01/24 06:26:54;;;;;;;0.40;0.40;;;11.40;99.90;;;;;;5090485;28;20222;-75
2024/01/24 06:29:20;;;;;;;0.80;0.43;;;11.40;99.90;;;;;;5095547;28;20312;-75
2024/01/24 06:31:46;;;;;;;0.40;0.40;;;11.40;99.90;;;;;;5080054;28;20680;-75
2024/01/24 06:34:12;;;;;;;0.47;0.40;;;11.40;99.90;;;;;;5082774;28;20225;-75
2024/01/24 06:36:38;;;;;;;0.40;0.30;;;11.50;99.90;;;;;;5096594;28;20612;-75
2024/01/24 06:39:09;;;;;;;7.40;0.50;;;11.50;99.90;;;;;;5095632;28;20484;-76
2024/01/24 06:41:35;;;;;;;0.80;0.40;;;11.50;99.90;;;;;;5081456;28;20464;-75
2024/01/24 06:44:05;;;;;;;0.50;0.40;;;11.50;99.90;;;;;;5082490;28;20505;-75
2024/01/24 06:46:31;;;;;;;0.50;0.50;;;11.50;99.90;;;;;;5079969;28;20222;-75
2024/01/24 06:48:57;;;;;;;0.40;0.40;;;11.60;99.90;;;;;;5100255;28;20455;-76
2024/01/24 06:51:23;;;;;;;0.73;0.47;;;11.50;99.90;;;;;;5066643;28;20505;-75
2024/01/24 06:53:48;;;;;;;0.40;0.40;;;11.60;99.90;;;;;;5092629;28;20217;-75
2024/01/24 06:56:14;;;;;;;0.40;0.40;;;11.60;99.90;;;;;;5068178;28;20246;-75
2024/01/24 06:58:42;;;;;;;0.40;0.30;;;11.60;99.90;;;;;;5082910;28;20222;-75
2024/01/24 07:01:08;;;;;;;1.23;0.30;;;11.60;99.90;;;;;;5093966;28;20253;-75
2024/01/24 07:03:34;;;;;;;0.40;0.40;;;11.60;99.90;;;;;;5095099;28;20487;-75
2024/01/24 07:06:00;;;;;;;0.40;0.40;;;11.60;99.90;;;;;;5092888;28;20216;-76
2024/01/24 07:08:27;;;;;;;0.40;0.40;;;11.70;99.90;;;;;;5097283;28;20324;-75
2024/01/24 07:10:52;;;;;;;5.30;0.50;;;11.70;99.90;;;;;;5087438;28;20713;-76
2024/01/24 07:13:19;;;;;;;0.40;0.40;;;11.70;99.90;;;;;;5091115;28;20457;-75
2024/01/24 07:15:44;;;;;;;0.80;0.50;;;11.70;99.90;;;;;;5095548;28;20211;-75
2024/01/24 07:18:10;;;;;;;0.93;0.43;;;11.70;99.90;;;;;;5099648;27;21090;-75
2024/01/24 07:20:36;;;;;;;0.40;0.30;;;11.70;99.90;;;;;;5072264;28;20473;-75
2024/01/24 07:23:02;;;;;;;0.40;0.30;;;11.70;99.90;;;;;;5102466;28;20222;-75
2024/01/24 07:25:28;;;;;;;0.40;0.30;;;11.70;99.90;;;;;;5099912;27;20637;-74
2024/01/24 07:27:53;;;;;;;0.63;0.50;;;11.80;99.90;;;;;;5077128;28;20629;-75
2024/01/24 07:30:22;;;;;;;0.40;0.40;;;11.80;99.90;;;;;;5056765;28;20273;-74
2024/01/24 07:32:48;;;;;;;0.40;0.30;;;11.90;99.90;;;;;;5092164;28;20729;-75
2024/01/24 07:35:15;;;;;;;0.40;0.30;;;11.90;99.90;;;;;;5081381;28;20463;-75
2024/01/24 07:37:41;;;;;;;0.60;0.53;;;11.90;99.90;;;;;;5096633;28;20838;-75
2024/01/24 07:40:07;;;;;;;0.50;0.47;;;11.90;99.90;;;;;;5088599;28;20521;-75
2024/01/24 07:42:33;;;;;;;0.50;0.50;;;11.90;99.90;;;;;;5082814;28;20989;-75
2024/01/24 07:44:59;;;;;;;0.90;0.60;;;12.00;99.90;;;;;;5085212;28;20486;-76
2024/01/24 07:47:25;;;;;;;3.13;1.30;;;12.00;99.90;;;;;;5083136;28;20672;-75
2024/01/24 07:49:51;;;;;;;1.43;0.80;;;11.90;99.90;;;;;;5090874;28;20536;-76
2024/01/24 07:52:16;;;;;;;0.67;0.60;;;12.00;99.90;;;;;;5099443;28;20311;-75
2024/01/24 07:54:42;;;;;;;1.90;0.40;;;11.90;99.90;;;;;;5077808;28;20218;-76
2024/01/24 07:57:08;;;;;;;9.50;0.60;;;11.90;99.90;;;;;;5080048;28;20228;-76
2024/01/24 07:59:34;;;;;;;0.40;0.30;;;11.90;99.90;;;;;;5086423;28;20230;-75
2024/01/24 08:02:02;;;;;;;0.50;0.40;;;11.90;99.90;;;;;;5078606;28;20767;-75
2024/01/24 08:04:30;;;;;;;0.30;0.30;;;11.90;99.90;;;;;;5086105;28;21065;-75
2024/01/24 08:06:56;;;;;;;0.50;0.40;;;11.80;99.90;;;;;;5070866;28;20474;-75
2024/01/24 08:09:21;;;;;;;0.50;0.40;;;11.80;99.90;;;;;;5091526;28;20495;-75
2024/01/24 08:11:47;;;;;;;0.80;0.40;;;11.80;99.90;;;;;;5078875;28;20215;-74
2024/01/24 08:14:13;;;;;;;0.40;0.40;;;11.80;99.90;;;;;;5077218;28;20249;-75
2024/01/24 08:16:39;;;;;;;0.40;0.40;;;11.80;99.90;;;;;;5081857;28;20278;-76
2024/01/24 08:19:04;;;;;;;1.53;0.40;;;11.90;99.90;;;;;;5085633;28;20218;-76
2024/01/24 08:21:30;;;;;;;0.70;0.50;;;11.80;99.90;;;;;;5078371;28;20219;-74
2024/01/24 08:23:56;;;;;;;0.40;0.37;;;11.80;99.90;;;;;;5097041;28;20225;-75
2024/01/24 08:26:21;;;;;;;0.50;0.50;;;11.80;99.90;;;;;;5082270;28;20245;-75
2024/01/24 08:28:47;;;;;;;1.03;0.60;;;11.80;99.90;;;;;;5077404;27;20270;-76
2024/01/24 08:31:13;;;;;;;0.50;0.40;;;11.80;99.90;;;;;;5102658;28;20237;-76
2024/01/24 08:33:39;;;;;;;2.73;0.90;;;11.80;99.90;;;;;;5099128;28;20464;-76
2024/01/24 08:36:05;;;;;;;1.30;0.60;;;11.80;99.90;;;;;;5086199;28;21039;-75
2024/01/24 08:38:31;;;;;;;1.57;0.63;;;11.80;99.90;;;;;;5089236;27;20243;-74
2024/01/24 08:40:56;;;;;;;2.47;0.60;;;11.80;99.90;;;;;;5063007;28;20785;-75
2024/01/24 08:43:22;;;;;;;4.17;0.70;;;11.80;99.90;;;;;;5067050;28;20818;-75
2024/01/24 08:45:50;;;;;;;0.60;0.60;;;11.80;99.90;;;;;;5069014;28;20211;-76
2024/01/24 08:48:17;;;;;;;0.93;0.73;;;11.90;99.90;;;;;;5081027;28;20701;-75
2024/01/24 08:50:43;;;;;;;2.27;0.70;;;12.00;99.90;;;;;;5088895;28;20495;-75
2024/01/24 08:53:09;;;;;;;1.53;0.57;;;12.00;99.90;;;;;;5099182;28;20456;-75
2024/01/24 08:55:34;;;;;;;1.17;0.50;;;12.00;99.90;;;;;;5096381;28;20226;-76
2024/01/24 08:58:00;;;;;;;0.70;0.40;;;12.00;99.90;;;;;;5093017;28;20222;-77
2024/01/24 09:00:25;;;;;;;1.67;1.10;;;11.90;99.90;;;;;;5088126;28;20249;-75
2024/01/24 09:02:51;;;;;;;1.53;1.03;;;11.90;99.90;;;;;;5097427;28;20693;-75
2024/01/24 09:05:19;;;;;;;3.07;1.20;;;11.90;99.90;;;;;;5086579;28;20294;-75
2024/01/24 09:07:45;;;;;;;1.70;0.43;;;11.90;99.90;;;;;;5092959;28;20271;-75
2024/01/24 09:10:11;;;;;;;2.20;0.90;;;11.90;99.90;;;;;;5085983;28;21060;-76
2024/01/24 09:12:37;;;;;;;3.67;0.70;;;11.90;99.90;;;;;;5094417;28;20210;-75
2024/01/24 09:15:04;;;;;;;2.57;0.70;;;11.90;99.90;;;;;;5098779;28;20309;-76
2024/01/24 09:17:30;;;;;;;4.73;1.20;;;11.80;99.90;;;;;;5103255;28;20222;-75
2024/01/24 09:19:56;;;;;;;3.50;1.30;;;11.90;99.90;;;;;;5082892;28;20474;-75
2024/01/24 09:22:21;;;;;;;0.80;0.77;;;11.80;99.90;;;;;;5083768;28;20227;-75
2024/01/24 09:24:47;;;;;;;1.33;0.80;;;11.90;99.90;;;;;;5069135;28;20261;-75
2024/01/24 09:27:12;;;;;;;5.10;1.07;;;11.90;99.90;;;;;;5078371;28;20597;-74
2024/01/24 09:29:38;;;;;;;2.40;0.83;;;11.90;99.90;;;;;;5081561;27;20263;-76
2024/01/24 09:32:04;;;;;;;3.30;1.10;;;11.90;99.90;;;;;;5095030;28;20221;-76
2024/01/24 09:34:29;;;;;;;1.10;1.00;;;11.90;99.90;;;;;;5077894;28;20253;-75
2024/01/24 09:36:55;;;;;;;5.93;1.30;;;11.80;99.90;;;;;;5090649;28;20210;-76
2024/01/24 09:39:22;;;;;;;1.60;1.20;;;11.80;99.90;;;;;;5084919;28;20275;-76
2024/01/24 09:41:51;;;;;;;1.63;0.70;;;11.80;99.90;;;;;;5089915;28;20273;-76
2024/01/24 09:44:17;;;;;;;7.30;1.57;;;11.80;99.90;;;;;;5091920;28;20983;-75
2024/01/24 09:46:43;;;;;;;4.43;0.70;;;11.90;99.90;;;;;;5081444;28;20456;-75
2024/01/24 09:49:14;;;;;;;3.40;1.37;;;11.90;99.90;;;;;;5098179;28;20480;-75
2024/01/24 09:51:42;;;;;;;1.47;1.10;;;11.80;99.90;;;;;;5095025;28;20483;-76
2024/01/24 09:54:07;;;;;;;1.90;1.33;;;11.90;99.90;;;;;;5072225;28;20445;-74
2024/01/24 09:56:37;;;;;;;2.70;1.70;;;11.90;99.90;;;;;;5085248;28;20459;-75
2024/01/24 09:59:04;;;;;;;2.00;1.20;;;11.90;99.90;;;;;;5078754;28;20267;-76
2024/01/24 10:01:32;;;;;;;7.53;1.13;;;11.90;99.90;;;;;;5071650;28;20472;-75
2024/01/24 10:04:00;;;;;;;4.33;1.30;;;12.00;99.90;;;;;;5091360;28;20483;-76
2024/01/24 10:06:26;;;;;;;6.60;1.70;;;12.10;99.90;;;;;;5081573;28;20463;-75
2024/01/24 10:08:52;;;;;;;9.43;2.70;;;12.10;99.90;;;;;;5091446;28;20459;-76
2024/01/24 10:11:18;;;;;;;3.10;1.70;;;12.00;99.90;;;;;;5093313;28;20459;-74
2024/01/24 10:13:43;;;;;;;7.30;1.70;;;12.00;99.90;;;;;;5063595;28;20218;-76
2024/01/24 10:16:09;;;;;;;3.63;1.50;;;12.00;99.90;;;;;;5095769;28;20364;-75
2024/01/24 10:18:35;;;;;;;4.60;1.80;;;12.00;99.90;;;;;;5091422;28;20210;-75
2024/01/24 10:21:04;;;;;;;8.43;3.30;;;12.00;99.90;;;;;;5089670;28;20246;-75
2024/01/24 10:23:30;;;;;;;7.33;2.90;;;11.90;99.90;;;;;;5092328;28;20334;-75
2024/01/24 10:25:57;;;;;;;5.50;2.10;;;11.90;99.90;;;;;;5058968;28;20500;-75
2024/01/24 10:28:23;;;;;;;3.20;1.50;;;11.90;99.90;;;;;;5090935;28;20456;-75
2024/01/24 10:30:49;;;;;;;6.73;2.00;;;11.90;99.90;;;;;;5076854;28;20459;-75
2024/01/24 10:33:15;;;;;;;4.70;1.60;;;11.90;99.90;;;;;;5081411;28;20628;-76
2024/01/24 10:35:42;;;;;;;5.20;1.50;;;11.90;99.90;;;;;;5076088;27;20225;-75
2024/01/24 10:38:12;;;;;;;4.50;1.83;;;11.80;99.90;;;;;;5097095;28;20469;-75
2024/01/24 10:40:41;;;;;;;5.57;2.50;;;11.80;99.90;;;;;;5089857;28;20479;-75
2024/01/24 10:43:14;;;;;;;10.33;2.20;;;11.80;99.90;;;;;;5080183;28;20460;-75
2024/01/24 10:45:48;;;;;;;4.10;1.80;;;11.80;99.90;;;;;;5077430;28;21007;-75
2024/01/24 10:48:16;;;;;;;4.20;1.67;;;11.80;99.90;;;;;;5094078;28;20480;-75
2024/01/24 10:50:43;;;;;;;4.03;1.77;;;11.80;99.90;;;;;;5059733;28;20448;-76
2024/01/24 10:53:09;;;;;;;3.13;1.50;;;11.80;99.90;;;;;;5093445;28;21047;-76
2024/01/24 10:55:36;;;;;;;7.03;3.83;;;11.80;99.90;;;;;;5093998;28;20488;-76
2024/01/24 10:58:02;;;;;;;4.80;2.10;;;11.80;99.90;;;;;;5068397;28;20497;-75
2024/01/24 11:00:29;;;;;;;4.90;1.90;;;11.70;99.90;;;;;;5079848;28;20473;-75
2024/01/24 11:02:55;;;;;;;8.03;2.57;;;11.70;99.90;;;;;;5094138;28;20498;-76
2024/01/24 11:05:43;;;;;;;5.93;1.60;;;11.70;99.90;;;;;;5079113;28;20464;-75
2024/01/24 11:08:28;;;;;;;4.13;1.70;;;11.70;99.90;;;;;;5090707;28;20452;-76
2024/01/24 11:10:57;;;;;;;4.67;1.77;;;11.70;99.90;;;;;;5084195;28;20540;-76
2024/01/24 11:13:26;;;;;;;9.43;2.40;;;11.70;99.90;;;;;;5089106;28;20718;-75
2024/01/24 11:15:54;;;;;;;3.27;1.40;;;11.70;99.90;;;;;;5078689;28;20486;-76
2024/01/24 11:18:21;;;;;;;2.87;1.63;;;11.70;99.90;;;;;;5096622;28;20459;-75
2024/01/24 11:20:51;;;;;;;3.20;1.70;;;11.70;99.90;;;;;;5088783;28;20471;-75
2024/01/24 11:23:38;;;;;;;6.80;1.30;;;11.70;99.90;;;;;;5066686;28;20464;-76
2024/01/24 11:26:04;;;;;;;3.83;1.87;;;11.70;99.90;;;;;;5092636;28;20455;-75
2024/01/24 11:28:30;;;;;;;8.90;2.00;;;11.70;99.90;;;;;;5092800;28;20459;-75
2024/01/24 11:30:56;;;;;;;9.60;3.93;;;11.70;99.90;;;;;;5073115;28;20436;-75
2024/01/24 11:33:21;;;;;;;16.77;8.40;;;11.70;99.90;;;;;;5079288;28;20583;-75
2024/01/24 11:35:47;;;;;;;25.90;12.90;;;11.70;99.90;;;;;;5087810;28;20225;-75
2024/01/24 11:38:22;;;;;;;23.77;11.87;;;11.70;99.90;;;;;;5058011;28;20738;-75
2024/01/24 11:40:51;;;;;;;13.90;6.80;;;11.70;99.90;;;;;;5089994;28;20877;-75
2024/01/24 11:43:28;;;;;;;12.60;4.40;;;11.70;99.90;;;;;;5062073;28;20464;-76
2024/01/24 11:45:54;;;;;;;9.70;3.07;;;11.70;99.90;;;;;;5073796;28;21388;-75
2024/01/24 11:48:19;;;;;;;13.60;3.33;;;11.80;99.90;;;;;;5096184;27;20452;-74
2024/01/24 11:50:46;;;;;;;12.27;3.53;;;11.80;99.90;;;;;;5077215;28;20558;-75
2024/01/24 11:53:11;;;;;;;10.90;4.90;;;11.90;99.90;;;;;;5071568;28;20223;-75
2024/01/24 11:55:37;;;;;;;25.87;13.67;;;11.80;99.90;;;;;;5082810;28;20472;-75
2024/01/24 11:58:05;;;;;;;8.13;4.77;;;11.90;99.90;;;;;;5063187;28;20731;-76
2024/01/24 12:00:30;;;;;;;8.43;3.30;;;11.90;99.90;;;;;;5099423;28;20725;-75
2024/01/24 12:02:56;;;;;;;8.60;2.10;;;11.90;99.90;;;;;;5078395;28;20461;-76
2024/01/24 12:05:22;;;;;;;10.80;2.27;;;11.90;99.90;;;;;;5072478;27;20218;-75
2024/01/24 12:07:47;;;;;;;4.57;1.70;;;11.90;99.90;;;;;;5100665;28;20218;-76
2024/01/24 12:10:13;;;;;;;10.23;2.30;;;11.90;99.90;;;;;;5102024;27;20218;-76
2024/01/24 12:12:40;;;;;;;6.67;2.20;;;11.80;99.90;;;;;;5079927;28;20217;-75
2024/01/24 12:15:07;;;;;;;4.87;1.70;;;11.80;99.90;;;;;;5100663;27;20223;-75
2024/01/24 12:17:38;;;;;;;4.13;1.63;;;11.80;99.90;;;;;;5102089;28;20460;-76
2024/01/24 12:20:05;;;;;;;11.43;2.67;;;11.80;99.90;;;;;;5084053;28;20493;-76
2024/01/24 12:22:31;;;;;;;6.37;2.07;;;11.90;99.90;;;;;;5079840;28;20514;-75
2024/01/24 12:25:02;;;;;;;9.83;2.00;;;11.90;99.90;;;;;;5091626;27;20462;-75
2024/01/24 12:27:27;;;;;;;12.90;1.90;;;12.00;99.90;;;;;;5085876;28;20460;-75
2024/01/24 12:29:53;;;;;;;8.23;4.03;;;11.90;99.90;;;;;;5097679;28;20456;-75
2024/01/24 12:32:21;;;;;;;2.30;1.70;;;11.90;99.90;;;;;;5099670;28;20222;-76
2024/01/24 12:34:47;;;;;;;6.80;1.90;;;11.90;99.90;;;;;;5092112;28;20300;-75
2024/01/24 12:37:13;;;;;;;5.63;1.77;;;11.90;99.90;;;;;;5083240;28;21128;-76
2024/01/24 12:39:41;;;;;;;12.33;2.87;;;11.90;99.90;;;;;;5099346;28;20501;-76
2024/01/24 12:42:07;;;;;;;6.10;2.27;;;11.90;99.90;;;;;;5082806;28;20509;-75
2024/01/24 12:44:34;;;;;;;9.60;1.83;;;12.00;99.90;;;;;;5100880;28;20456;-75
2024/01/24 12:47:01;;;;;;;3.70;1.87;;;11.90;99.90;;;;;;5092980;28;20488;-76